createdAt,value
2019-03-05T12:58:27.999Z,0
2019-03-05T12:59:37.934Z,0
2019-03-05T13:00:47.384Z,0
2019-03-05T13:01:56.569Z,0
2019-03-05T13:03:06.002Z,0
2019-03-05T13:04:15.943Z,0
2019-03-05T13:05:25.379Z,0
2019-03-05T13:06:34.562Z,0
2019-03-05T13:07:44.080Z,0
2019-03-05T13:08:53.518Z,0
2019-03-05T13:10:07.156Z,0
2019-03-05T13:11:20.259Z,0
2019-03-05T13:12:32.128Z,0
2019-03-05T13:13:47.450Z,0
2019-03-05T13:15:00.263Z,0
2019-03-05T13:16:09.953Z,0
2019-03-05T13:17:21.327Z,0
2019-03-05T13:18:35.737Z,0
2019-03-05T13:19:53.612Z,0
2019-03-05T13:21:07.618Z,0
2019-03-05T13:22:17.919Z,0
2019-03-05T13:23:27.614Z,0
2019-03-05T13:24:37.562Z,0
2019-03-05T13:25:47.011Z,0
2019-03-05T13:26:56.701Z,0
2019-03-05T13:28:09.592Z,0
2019-03-05T13:29:24.178Z,0
2019-03-05T13:30:34.319Z,0
2019-03-05T13:31:46.941Z,0
2019-03-05T13:33:05.881Z,0
2019-03-05T13:34:22.156Z,0
2019-03-05T13:35:36.885Z,0
2019-03-05T13:36:50.551Z,0
2019-03-05T13:38:07.336Z,0
2019-03-05T13:39:22.156Z,0
2019-03-05T13:40:40.568Z,0
2019-03-05T13:41:53.754Z,0
2019-03-05T13:43:03.864Z,0
2019-03-05T13:44:13.052Z,0
2019-03-05T13:45:22.991Z,0
2019-03-05T13:46:36.693Z,0
2019-03-05T13:47:49.048Z,0
2019-03-05T13:49:05.520Z,0
2019-03-05T13:50:15.876Z,0
2019-03-05T13:51:27.737Z,0
2019-03-05T13:52:40.897Z,0
2019-03-05T13:54:00.282Z,0
2019-03-05T13:55:16.259Z,0
2019-03-05T13:56:26.207Z,0
2019-03-05T13:57:36.152Z,0
2019-03-05T13:58:45.849Z,0
2019-03-05T13:59:55.310Z,0
2019-03-05T14:01:04.750Z,0
2019-03-05T14:02:14.447Z,0
2019-03-05T14:03:24.386Z,0
2019-03-05T14:04:34.340Z,0
2019-03-05T14:05:44.290Z,0
2019-03-05T14:06:55.005Z,0
2019-03-05T14:08:05.270Z,0
2019-03-05T14:09:16.072Z,0
2019-03-05T14:10:28.575Z,0
2019-03-05T14:11:38.328Z,0
2019-03-05T14:12:48.357Z,0
2019-03-05T14:13:58.345Z,0
2019-03-05T14:15:08.372Z,0
2019-03-05T14:16:18.331Z,0
2019-03-05T14:17:28.350Z,0
2019-03-05T14:18:38.472Z,0
2019-03-05T14:19:48.499Z,0
2019-03-05T14:20:58.267Z,0
2019-03-05T14:22:08.274Z,0
2019-03-05T14:23:18.293Z,0
2019-03-05T14:24:28.105Z,0
2019-03-05T14:25:38.122Z,0
2019-03-05T14:26:48.132Z,0
2019-03-05T14:27:57.675Z,0
2019-03-05T14:29:07.496Z,0
2019-03-05T14:30:17.552Z,0
2019-03-05T14:31:28.214Z,0
2019-03-05T14:32:38.264Z,0
2019-03-05T14:33:50.289Z,0
2019-03-05T14:35:00.519Z,0
2019-03-05T14:36:10.577Z,0
2019-03-05T14:37:20.376Z,0
2019-03-05T14:38:30.412Z,0
2019-03-05T14:39:40.467Z,0
2019-03-05T14:40:50.548Z,0
2019-03-05T14:42:00.568Z,0
2019-03-05T14:43:10.487Z,0
2019-03-05T14:44:20.494Z,0
2019-03-05T14:45:30.618Z,0
2019-03-05T14:46:40.370Z,0
2019-03-05T14:47:50.379Z,0
2019-03-05T14:49:00.418Z,0
2019-03-05T14:50:10.293Z,0
2019-03-05T14:51:20.110Z,0
2019-03-05T14:52:30.102Z,0
2019-03-05T14:53:40.204Z,0
2019-03-05T14:54:49.973Z,0
2019-03-05T14:56:01.562Z,0
2019-03-05T14:57:11.369Z,0
2019-03-05T14:58:21.239Z,0
2019-03-05T14:59:30.777Z,0
2019-03-05T15:00:40.820Z,0
2019-03-05T15:01:50.978Z,0
2019-03-05T15:03:01.147Z,0
2019-03-05T15:04:11.202Z,0
2019-03-05T15:05:21.480Z,0
2019-03-05T15:06:31.527Z,0
2019-03-05T15:07:41.543Z,0
2019-03-05T15:08:51.128Z,0
2019-03-05T15:10:00.904Z,0
2019-03-05T15:11:10.734Z,0
2019-03-05T15:12:20.608Z,0
2019-03-05T15:13:30.483Z,0
2019-03-05T15:14:40.332Z,0
2019-03-05T15:15:50.148Z,0
2019-03-05T15:17:00.109Z,0
2019-03-05T15:18:09.677Z,0
2019-03-05T15:19:28.483Z,0
2019-03-05T15:20:38.605Z,0
2019-03-05T15:21:48.695Z,0
2019-03-05T15:22:58.642Z,0
2019-03-05T15:24:08.757Z,0
2019-03-05T15:25:18.943Z,0
2019-03-05T15:26:28.795Z,0
2019-03-05T15:27:38.844Z,0
2019-03-05T15:29:01.191Z,0
2019-03-05T15:30:10.792Z,0
2019-03-05T15:31:20.535Z,0
2019-03-05T15:32:30.103Z,0
2019-03-05T15:33:39.715Z,0
2019-03-05T15:34:49.502Z,0
2019-03-05T15:35:59.429Z,0
2019-03-05T15:37:09.287Z,0
2019-03-05T15:38:19.112Z,0
2019-03-05T15:39:29.402Z,0
2019-03-05T15:40:39.352Z,0
2019-03-05T15:41:53.075Z,0
2019-03-05T15:43:03.849Z,0
2019-03-05T15:44:13.268Z,0
2019-03-05T15:45:23.056Z,0
2019-03-05T15:46:33.163Z,0
2019-03-05T15:47:45.168Z,0
2019-03-05T15:48:55.244Z,0
2019-03-05T15:50:04.926Z,0
2019-03-05T15:51:14.730Z,0
2019-03-05T15:52:24.854Z,0
2019-03-05T15:53:35.193Z,0
2019-03-05T15:54:44.505Z,0
2019-03-05T15:55:55.893Z,0
2019-03-05T15:57:05.791Z,0
2019-03-05T15:58:15.742Z,0
2019-03-05T15:59:25.808Z,0
2019-03-05T16:00:35.508Z,0
2019-03-05T16:01:45.438Z,12
2019-03-05T16:02:55.239Z,12
2019-03-05T16:04:04.952Z,12
2019-03-05T16:05:23.312Z,12
2019-03-05T16:06:38.955Z,12
2019-03-05T16:07:52.947Z,12
2019-03-05T16:09:08.016Z,12
2019-03-05T16:10:21.997Z,16
2019-03-05T16:11:36.584Z,12
2019-03-05T16:12:49.949Z,12
2019-03-05T16:14:03.660Z,12
2019-03-05T16:15:18.565Z,12
2019-03-05T16:16:28.699Z,12
2019-03-05T16:17:38.140Z,12
2019-03-05T16:18:47.846Z,12
2019-03-05T16:19:59.811Z,12
2019-03-05T16:21:13.924Z,16
2019-03-05T16:22:26.946Z,648
2019-03-05T16:23:36.664Z,580
2019-03-05T16:24:46.171Z,504
2019-03-05T16:25:57.746Z,436
2019-03-05T16:27:07.788Z,408
2019-03-05T16:28:17.271Z,392
2019-03-05T16:29:28.131Z,376
2019-03-05T16:30:41.610Z,360
2019-03-05T16:31:56.030Z,356
2019-03-05T16:33:07.474Z,348
2019-03-05T16:34:20.535Z,336
2019-03-05T16:35:29.768Z,324
2019-03-05T16:36:42.498Z,312
2019-03-05T16:37:52.209Z,300
2019-03-05T16:39:03.189Z,288
2019-03-05T16:40:16.818Z,284
2019-03-05T16:41:28.824Z,272
2019-03-05T16:42:44.151Z,260
2019-03-05T16:43:53.368Z,248
2019-03-05T16:45:05.218Z,240
2019-03-05T16:46:14.693Z,236
2019-03-05T16:47:24.678Z,228
2019-03-05T16:48:34.662Z,212
2019-03-05T16:49:44.624Z,200
2019-03-05T16:50:54.630Z,196
2019-03-05T16:52:03.589Z,196
2019-03-05T16:53:13.558Z,188
2019-03-05T16:54:23.021Z,180
2019-03-05T16:55:32.740Z,176
2019-03-05T16:56:42.441Z,164
2019-03-05T16:57:52.189Z,152
2019-03-05T16:59:01.906Z,144
2019-03-05T17:00:11.874Z,136
2019-03-05T17:01:21.348Z,124
2019-03-05T17:02:30.815Z,120
2019-03-05T17:03:40.774Z,112
2019-03-05T17:04:50.768Z,100
2019-03-05T17:06:00.721Z,92
2019-03-05T17:07:10.642Z,80
2019-03-05T17:08:20.673Z,68
2019-03-05T17:09:30.956Z,60
2019-03-05T17:10:40.833Z,56
2019-03-05T17:11:50.284Z,48
2019-03-05T17:12:59.747Z,44
2019-03-05T17:14:09.231Z,36
2019-03-05T17:15:19.095Z,32
2019-03-05T17:16:28.960Z,28
2019-03-05T17:17:38.230Z,24
2019-03-05T17:18:47.773Z,20
2019-03-05T17:19:57.224Z,16
2019-03-05T17:21:07.182Z,16
2019-03-05T17:22:16.892Z,12
2019-03-05T17:23:26.852Z,12
2019-03-05T17:24:36.572Z,8
2019-03-05T17:25:46.535Z,8
2019-03-05T17:26:56.735Z,4
2019-03-05T17:28:06.245Z,4
2019-03-05T17:29:15.955Z,4
2019-03-05T17:30:25.923Z,4
2019-03-05T17:31:35.903Z,4
2019-03-05T17:32:45.656Z,4
2019-03-05T17:33:55.617Z,0
2019-03-05T17:35:05.572Z,0
2019-03-05T17:36:14.571Z,0
2019-03-05T17:37:24.230Z,0
2019-03-05T17:38:33.993Z,0
2019-03-05T17:39:43.961Z,0
2019-03-05T17:40:54.098Z,0
2019-03-05T17:42:04.332Z,0
2019-03-05T17:43:14.399Z,0
2019-03-05T17:44:24.209Z,0
2019-03-05T17:45:33.623Z,0
2019-03-05T17:46:43.689Z,0
2019-03-05T17:47:53.680Z,0
2019-03-05T17:49:03.429Z,0
2019-03-05T17:50:13.143Z,0
2019-03-05T17:51:22.862Z,0
2019-03-05T17:52:32.844Z,0
2019-03-05T17:53:42.805Z,0
2019-03-05T17:54:52.515Z,0
2019-03-05T17:56:01.969Z,0
2019-03-05T17:57:13.879Z,0
2019-03-05T17:58:23.588Z,0
2019-03-05T17:59:33.576Z,12
2019-03-05T18:00:43.542Z,12
2019-03-05T18:01:53.246Z,12
2019-03-05T18:03:03.117Z,12
2019-03-05T18:04:12.832Z,12
2019-03-05T18:05:23.911Z,12
2019-03-05T18:06:34.043Z,0
2019-03-05T18:07:43.993Z,0
2019-03-05T18:08:54.015Z,0
2019-03-05T18:10:04.739Z,0
2019-03-05T18:11:14.288Z,0
2019-03-05T18:12:24.249Z,0
2019-03-05T18:13:34.859Z,0
2019-03-05T18:14:44.882Z,0
2019-03-05T18:15:54.927Z,0
2019-03-05T18:17:04.818Z,0
2019-03-05T18:18:14.772Z,0
2019-03-05T18:19:24.729Z,0
2019-03-05T18:20:34.446Z,0
2019-03-05T18:21:44.161Z,0
2019-03-05T18:22:53.911Z,0
2019-03-05T18:24:02.666Z,0
2019-03-05T18:25:12.370Z,0
2019-03-05T18:26:22.080Z,0
2019-03-05T18:27:31.801Z,0
2019-03-05T18:28:41.264Z,0
2019-03-05T18:29:51.228Z,0
2019-03-05T18:31:00.937Z,0
2019-03-05T18:32:10.407Z,0
2019-03-05T18:33:19.865Z,0
2019-03-05T18:34:29.570Z,0
2019-03-05T18:35:39.023Z,0
2019-03-05T18:36:48.997Z,0
2019-03-05T18:37:58.991Z,0
2019-03-05T18:39:08.946Z,0
2019-03-05T18:40:18.647Z,0
2019-03-05T18:41:28.120Z,0
2019-03-05T18:42:37.837Z,0
2019-03-05T18:43:47.546Z,0
2019-03-05T18:44:57.295Z,0
2019-03-05T18:46:06.497Z,0
2019-03-05T18:47:16.555Z,0
2019-03-05T18:48:25.764Z,0
2019-03-05T18:49:35.477Z,0
2019-03-05T18:50:45.189Z,0
2019-03-05T18:51:55.464Z,0
2019-03-05T18:53:06.150Z,0
2019-03-05T18:54:16.231Z,0
2019-03-05T18:55:26.153Z,0
2019-03-05T18:56:36.122Z,0
2019-03-05T18:57:45.840Z,0
2019-03-05T18:58:55.800Z,0
2019-03-05T19:00:05.776Z,0
2019-03-05T19:01:16.968Z,0
2019-03-05T19:02:26.691Z,0
2019-03-05T19:03:36.652Z,0
2019-03-05T19:04:45.869Z,0
2019-03-05T19:05:55.579Z,0
2019-03-05T19:07:05.300Z,0
2019-03-05T19:08:14.763Z,0
2019-03-05T19:09:24.465Z,0
2019-03-05T19:10:34.436Z,0
2019-03-05T19:11:43.921Z,0
2019-03-05T19:12:53.375Z,0
2019-03-05T19:14:03.338Z,0
2019-03-05T19:15:13.050Z,0
2019-03-05T19:16:22.767Z,0
2019-03-05T19:17:32.480Z,0
2019-03-05T19:18:42.446Z,12
2019-03-05T19:19:51.912Z,12
2019-03-05T19:21:01.632Z,12
2019-03-05T19:22:11.600Z,12
2019-03-05T19:23:21.563Z,12
2019-03-05T19:24:31.500Z,12
2019-03-05T19:25:41.959Z,12
2019-03-05T19:26:52.362Z,12
2019-03-05T19:28:02.454Z,12
2019-03-05T19:29:12.361Z,12
2019-03-05T19:30:22.452Z,12
2019-03-05T19:31:31.670Z,12
2019-03-05T19:32:40.641Z,12
2019-03-05T19:33:51.036Z,12
2019-03-05T19:35:00.527Z,12
2019-03-05T19:36:10.009Z,12
2019-03-05T19:37:19.470Z,12
2019-03-05T19:38:28.941Z,12
2019-03-05T19:39:38.915Z,12
2019-03-05T19:40:48.682Z,12
2019-03-05T19:42:03.210Z,12
2019-03-05T19:43:13.187Z,12
2019-03-05T19:44:23.199Z,12
2019-03-05T19:45:32.909Z,12
2019-03-05T19:46:42.616Z,12
2019-03-05T19:47:52.581Z,12
2019-03-05T19:49:02.319Z,12
2019-03-05T19:50:12.762Z,12
2019-03-05T19:51:22.749Z,12
2019-03-05T19:52:32.736Z,12
2019-03-05T19:53:42.204Z,12
2019-03-05T19:54:51.933Z,12
2019-03-05T19:56:01.403Z,12
2019-03-05T19:57:11.123Z,12
2019-03-05T19:58:20.755Z,12
2019-03-05T19:59:32.699Z,12
2019-03-05T20:00:43.085Z,12
2019-03-05T20:01:53.107Z,12
2019-03-05T20:03:03.256Z,12
2019-03-05T20:04:19.019Z,0
2019-03-05T20:05:28.734Z,0
2019-03-05T20:06:37.932Z,0
2019-03-05T20:07:47.636Z,0
2019-03-05T20:08:57.608Z,0
2019-03-05T20:10:07.633Z,0
2019-03-05T20:11:17.118Z,0
2019-03-05T20:12:26.840Z,0
2019-03-05T20:13:38.941Z,12
2019-03-05T20:14:48.657Z,12
2019-03-05T20:15:58.121Z,12
2019-03-05T20:17:08.102Z,12
2019-03-05T20:18:17.822Z,12
2019-03-05T20:19:27.545Z,0
2019-03-05T20:20:37.266Z,0
2019-03-05T20:21:46.715Z,0
2019-03-05T20:22:56.177Z,0
2019-03-05T20:24:05.915Z,0
2019-03-05T20:25:15.644Z,0
2019-03-05T20:26:25.609Z,0
2019-03-05T20:27:35.807Z,0
2019-03-05T20:28:45.825Z,0
2019-03-05T20:29:55.911Z,0
2019-03-05T20:31:06.411Z,0
2019-03-05T20:32:16.672Z,0
2019-03-05T20:33:27.120Z,0
2019-03-05T20:34:37.327Z,0
2019-03-05T20:35:47.072Z,0
2019-03-05T20:36:56.540Z,0
2019-03-05T20:38:06.030Z,0
2019-03-05T20:39:15.753Z,0
2019-03-05T20:40:25.240Z,0
2019-03-05T20:41:34.731Z,0
2019-03-05T20:42:44.460Z,0
2019-03-05T20:43:53.938Z,0
2019-03-05T20:45:03.752Z,0
2019-03-05T20:46:13.226Z,0
2019-03-05T20:47:22.964Z,0
2019-03-05T20:48:32.706Z,12
2019-03-05T20:49:42.199Z,0
2019-03-05T20:50:51.982Z,0
2019-03-05T20:52:01.748Z,0
2019-03-05T20:53:11.746Z,0
2019-03-05T20:54:21.496Z,0
2019-03-05T20:55:30.989Z,0
2019-03-05T20:56:40.964Z,0
2019-03-05T20:57:50.709Z,0
2019-03-05T20:59:00.191Z,0
2019-03-05T21:00:10.165Z,0
2019-03-05T21:01:20.142Z,0
2019-03-05T21:02:29.906Z,0
2019-03-05T21:03:39.889Z,0
2019-03-05T21:04:49.382Z,0
2019-03-05T21:05:58.620Z,0
2019-03-05T21:07:08.101Z,0
2019-03-05T21:08:18.094Z,0
2019-03-05T21:09:27.837Z,0
2019-03-05T21:10:37.263Z,0
2019-03-05T21:11:47.075Z,0
2019-03-05T21:12:57.568Z,12
2019-03-05T21:14:07.684Z,12
2019-03-05T21:15:17.466Z,12
2019-03-05T21:16:27.284Z,12
2019-03-05T21:17:37.241Z,12
2019-03-05T21:18:46.446Z,12
2019-03-05T21:19:56.147Z,0
2019-03-05T21:21:06.106Z,0
2019-03-05T21:22:15.805Z,0
2019-03-05T21:23:25.258Z,0
2019-03-05T21:24:35.210Z,0
2019-03-05T21:25:44.919Z,0
2019-03-05T21:26:54.403Z,0
2019-03-05T21:28:04.180Z,0
2019-03-05T21:29:13.886Z,0
2019-03-05T21:30:23.602Z,0
2019-03-05T21:31:33.309Z,0
2019-03-05T21:32:43.017Z,0
2019-03-05T21:33:54.421Z,0
2019-03-05T21:35:04.184Z,0
2019-03-05T21:36:13.382Z,0
2019-03-05T21:37:22.835Z,0
2019-03-05T21:38:32.542Z,0
2019-03-05T21:39:42.255Z,0
2019-03-05T21:40:51.964Z,0
2019-03-05T21:42:01.433Z,0
2019-03-05T21:43:11.140Z,0
2019-03-05T21:44:20.351Z,0
2019-03-05T21:45:30.046Z,0
2019-03-05T21:46:39.751Z,0
2019-03-05T21:47:49.612Z,0
2019-03-05T21:49:00.040Z,0
2019-03-05T21:50:10.334Z,0
2019-03-05T21:51:20.517Z,0
2019-03-05T21:52:30.221Z,0
2019-03-05T21:53:40.175Z,0
2019-03-05T21:54:49.885Z,0
2019-03-05T21:55:59.851Z,0
2019-03-05T21:57:09.861Z,0
2019-03-05T21:58:19.837Z,0
2019-03-05T21:59:29.564Z,0
2019-03-05T22:00:39.031Z,0
2019-03-05T22:01:48.495Z,0
2019-03-05T22:02:57.965Z,0
2019-03-05T22:04:07.677Z,0
2019-03-05T22:05:17.381Z,0
2019-03-05T22:06:27.325Z,0
2019-03-05T22:07:36.791Z,0
2019-03-05T22:08:46.502Z,0
2019-03-05T22:09:56.466Z,0
2019-03-05T22:11:06.429Z,0
2019-03-05T22:12:16.384Z,0
2019-03-05T22:13:26.344Z,0
2019-03-05T22:14:36.061Z,0
2019-03-05T22:15:45.762Z,0
2019-03-05T22:16:55.723Z,0
2019-03-05T22:18:05.180Z,0
2019-03-05T22:19:14.394Z,0
2019-03-05T22:20:24.111Z,0
2019-03-05T22:21:33.821Z,0
2019-03-05T22:22:43.563Z,0
2019-03-05T22:23:54.163Z,0
2019-03-05T22:25:04.570Z,0
2019-03-05T22:26:14.499Z,0
2019-03-05T22:27:24.383Z,0
2019-03-05T22:28:34.063Z,0
2019-03-05T22:29:43.271Z,0
2019-03-05T22:30:52.979Z,0
2019-03-05T22:32:02.188Z,0
2019-03-05T22:33:12.153Z,0
2019-03-05T22:34:22.115Z,0
2019-03-05T22:35:31.814Z,0
2019-03-05T22:36:41.523Z,0
2019-03-05T22:37:51.237Z,0
2019-03-05T22:39:00.514Z,0
2019-03-05T22:40:10.080Z,0
2019-03-05T22:41:19.540Z,0
2019-03-05T22:42:29.497Z,0
2019-03-05T22:43:39.453Z,0
2019-03-05T22:44:48.921Z,0
2019-03-05T22:45:58.117Z,0
2019-03-05T22:47:07.815Z,0
2019-03-05T22:48:17.264Z,0
2019-03-05T22:49:27.242Z,0
2019-03-05T22:50:36.945Z,0
2019-03-05T22:51:46.902Z,0
2019-03-05T22:52:56.614Z,0
2019-03-05T22:54:06.622Z,0
2019-03-05T22:55:16.591Z,0
2019-03-05T22:56:26.563Z,0
2019-03-05T22:57:36.299Z,0
2019-03-05T22:58:46.261Z,0
2019-03-05T22:59:55.974Z,0
2019-03-05T23:01:06.213Z,0
2019-03-05T23:02:16.339Z,0
2019-03-05T23:03:26.919Z,0
2019-03-05T23:04:37.191Z,0
2019-03-05T23:05:46.876Z,0
2019-03-05T23:06:56.337Z,0
2019-03-05T23:08:06.022Z,0
2019-03-05T23:09:15.976Z,0
2019-03-05T23:10:25.675Z,0
2019-03-05T23:11:35.367Z,0
2019-03-05T23:12:45.325Z,0
2019-03-05T23:13:55.032Z,0
2019-03-05T23:15:05.090Z,0
2019-03-05T23:16:15.047Z,0
2019-03-05T23:17:25.014Z,0
2019-03-05T23:18:34.724Z,0
2019-03-05T23:19:44.196Z,0
2019-03-05T23:20:54.158Z,0
2019-03-05T23:22:03.859Z,0
2019-03-05T23:23:13.821Z,0
2019-03-05T23:24:23.828Z,0
2019-03-05T23:25:33.578Z,0
2019-03-05T23:26:43.546Z,0
2019-03-05T23:27:53.252Z,0
2019-03-05T23:29:03.016Z,0
2019-03-05T23:30:12.981Z,0
2019-03-05T23:31:22.943Z,0
2019-03-05T23:32:32.405Z,0
2019-03-05T23:33:42.363Z,0
2019-03-05T23:34:52.336Z,0
2019-03-05T23:36:02.334Z,0
2019-03-05T23:37:12.562Z,0
2019-03-05T23:38:23.259Z,0
2019-03-05T23:39:33.751Z,0
2019-03-05T23:40:43.552Z,0
2019-03-05T23:41:53.616Z,0
2019-03-05T23:43:03.320Z,0
2019-03-05T23:44:12.773Z,0
2019-03-05T23:45:22.741Z,0
2019-03-05T23:46:32.204Z,0
2019-03-05T23:47:41.662Z,0
2019-03-05T23:48:51.138Z,0
2019-03-05T23:50:01.159Z,0
2019-03-05T23:51:11.125Z,0
2019-03-05T23:52:21.067Z,0
2019-03-05T23:53:30.268Z,0
2019-03-05T23:54:39.519Z,0
2019-03-05T23:55:49.232Z,0
2019-03-05T23:56:58.937Z,0
2019-03-05T23:58:08.642Z,0
2019-03-05T23:59:18.346Z,0
